sensor_id;sensor_type;location;lat;lon;timestamp;temperature;humidity
37938;DHT22;23763;48.130;11.602;2023-08-17T00:00:29;21.70;99.90
37938;DHT22;23763;48.130;11.602;2023-08-17T00:02:54;21.70;99.90
37938;DHT22;23763;48.130;11.602;2023-08-17T00:05:20;21.70;99.90
37938;DHT22;23763;48.130;11.602;2023-08-17T00:07:46;21.70;99.90
37938;DHT22;23763;48.130;11.602;2023-08-17T00:10:11;21.70;99.90
37938;DHT22;23763;48.130;11.602;2023-08-17T00:12:37;21.60;99.90
37938;DHT22;23763;48.130;11.602;2023-08-17T00:15:03;21.60;99.90
37938;DHT22;23763;48.130;11.602;2023-08-17T00:17:29;21.60;99.90
37938;DHT22;23763;48.130;11.602;2023-08-17T00:19:55;21.60;99.90
37938;DHT22;23763;48.130;11.602;2023-08-17T00:22:21;21.60;99.90
37938;DHT22;23763;48.130;11.602;2023-08-17T00:24:46;21.60;99.90
37938;DHT22;23763;48.130;11.602;2023-08-17T00:27:12;21.60;99.90
37938;DHT22;23763;48.130;11.602;2023-08-17T00:29:37;21.50;99.90
37938;DHT22;23763;48.130;11.602;2023-08-17T00:32:03;21.40;99.90
37938;DHT22;23763;48.130;11.602;2023-08-17T00:34:29;21.30;99.90
37938;DHT22;23763;48.130;11.602;2023-08-17T00:36:55;21.20;99.90
37938;DHT22;23763;48.130;11.602;2023-08-17T00:39:20;21.10;99.90
37938;DHT22;23763;48.130;11.602;2023-08-17T00:41:46;21.10;99.90
37938;DHT22;23763;48.130;11.602;2023-08-17T00:44:12;21.20;99.90
37938;DHT22;23763;48.130;11.602;2023-08-17T00:46:38;21.20;99.90
37938;DHT22;23763;48.130;11.602;2023-08-17T00:49:05;21.20;99.90
37938;DHT22;23763;48.130;11.602;2023-08-17T00:51:31;21.20;99.90
37938;DHT22;23763;48.130;11.602;2023-08-17T00:54:01;21.20;99.90
37938;DHT22;23763;48.130;11.602;2023-08-17T00:56:27;21.20;99.90
37938;DHT22;23763;48.130;11.602;2023-08-17T00:58:53;21.30;99.90
37938;DHT22;23763;48.130;11.602;2023-08-17T01:01:19;21.30;99.90
37938;DHT22;23763;48.130;11.602;2023-08-17T01:03:45;21.30;99.90
37938;DHT22;23763;48.130;11.602;2023-08-17T01:06:11;21.30;99.90
37938;DHT22;23763;48.130;11.602;2023-08-17T01:08:37;21.30;99.90
37938;DHT22;23763;48.130;11.602;2023-08-17T01:16:13;21.20;99.90
37938;DHT22;23763;48.130;11.602;2023-08-17T01:18:40;21.30;99.90
37938;DHT22;23763;48.130;11.602;2023-08-17T01:21:08;21.30;99.90
37938;DHT22;23763;48.130;11.602;2023-08-17T01:23:35;21.20;99.90
37938;DHT22;23763;48.130;11.602;2023-08-17T01:26:00;21.10;99.90
37938;DHT22;23763;48.130;11.602;2023-08-17T01:28:27;21.10;99.90
37938;DHT22;23763;48.130;11.602;2023-08-17T01:31:00;21.10;99.90
37938;DHT22;23763;48.130;11.602;2023-08-17T01:36:20;20.80;99.90
37938;DHT22;23763;48.130;11.602;2023-08-17T01:38:50;20.70;99.90
37938;DHT22;23763;48.130;11.602;2023-08-17T01:41:17;20.60;99.90
37938;DHT22;23763;48.130;11.602;2023-08-17T01:43:43;20.60;99.90
37938;DHT22;23763;48.130;11.602;2023-08-17T01:46:13;20.60;99.90
37938;DHT22;23763;48.130;11.602;2023-08-17T01:48:41;20.60;99.90
37938;DHT22;23763;48.130;11.602;2023-08-17T01:51:06;20.50;99.90
37938;DHT22;23763;48.130;11.602;2023-08-17T01:53:32;20.40;99.90
37938;DHT22;23763;48.130;11.602;2023-08-17T01:55:57;20.30;99.90
37938;DHT22;23763;48.130;11.602;2023-08-17T01:58:23;20.30;99.90
37938;DHT22;23763;48.130;11.602;2023-08-17T02:00:48;20.20;99.90
37938;DHT22;23763;48.130;11.602;2023-08-17T02:03:14;20.10;99.90
37938;DHT22;23763;48.130;11.602;2023-08-17T02:05:44;20.10;99.90
37938;DHT22;23763;48.130;11.602;2023-08-17T02:08:10;20.10;99.90
37938;DHT22;23763;48.130;11.602;2023-08-17T02:10:36;20.10;99.90
37938;DHT22;23763;48.130;11.602;2023-08-17T02:13:02;20.10;99.90
37938;DHT22;23763;48.130;11.602;2023-08-17T02:15:27;20.00;99.90
37938;DHT22;23763;48.130;11.602;2023-08-17T02:17:53;20.00;99.90
37938;DHT22;23763;48.130;11.602;2023-08-17T02:20:19;20.00;99.90
37938;DHT22;23763;48.130;11.602;2023-08-17T02:22:44;19.90;99.90
37938;DHT22;23763;48.130;11.602;2023-08-17T02:25:10;20.00;99.90
37938;DHT22;23763;48.130;11.602;2023-08-17T02:27:35;20.10;99.90
37938;DHT22;23763;48.130;11.602;2023-08-17T02:30:02;20.10;99.90
37938;DHT22;23763;48.130;11.602;2023-08-17T02:32:28;20.10;99.90
37938;DHT22;23763;48.130;11.602;2023-08-17T02:34:54;20.00;99.90
37938;DHT22;23763;48.130;11.602;2023-08-17T02:37:20;20.00;99.90
37938;DHT22;23763;48.130;11.602;2023-08-17T02:39:45;20.00;99.90
37938;DHT22;23763;48.130;11.602;2023-08-17T02:42:11;20.00;99.90
37938;DHT22;23763;48.130;11.602;2023-08-17T02:44:37;20.00;99.90
37938;DHT22;23763;48.130;11.602;2023-08-17T02:47:02;20.10;99.90
37938;DHT22;23763;48.130;11.602;2023-08-17T02:49:28;20.00;99.90
37938;DHT22;23763;48.130;11.602;2023-08-17T02:51:53;20.10;99.90
37938;DHT22;23763;48.130;11.602;2023-08-17T02:54:19;20.10;99.90
37938;DHT22;23763;48.130;11.602;2023-08-17T02:56:44;20.10;99.90
37938;DHT22;23763;48.130;11.602;2023-08-17T02:59:10;20.00;99.90
37938;DHT22;23763;48.130;11.602;2023-08-17T03:01:36;19.90;99.90
37938;DHT22;23763;48.130;11.602;2023-08-17T03:04:01;19.90;99.90
37938;DHT22;23763;48.130;11.602;2023-08-17T03:06:27;19.80;99.90
37938;DHT22;23763;48.130;11.602;2023-08-17T03:08:53;19.80;99.90
37938;DHT22;23763;48.130;11.602;2023-08-17T03:11:20;19.90;99.90
37938;DHT22;23763;48.130;11.602;2023-08-17T03:13:46;19.90;99.90
37938;DHT22;23763;48.130;11.602;2023-08-17T03:16:13;19.90;99.90
37938;DHT22;23763;48.130;11.602;2023-08-17T03:18:39;19.90;99.90
37938;DHT22;23763;48.130;11.602;2023-08-17T03:21:04;19.90;99.90
37938;DHT22;23763;48.130;11.602;2023-08-17T03:23:32;19.90;99.90
37938;DHT22;23763;48.130;11.602;2023-08-17T03:25:57;19.90;99.90
37938;DHT22;23763;48.130;11.602;2023-08-17T03:28:23;19.90;99.90
37938;DHT22;23763;48.130;11.602;2023-08-17T03:30:50;19.80;99.90
37938;DHT22;23763;48.130;11.602;2023-08-17T03:33:15;19.80;99.90
37938;DHT22;23763;48.130;11.602;2023-08-17T03:35:41;19.80;99.90
37938;DHT22;23763;48.130;11.602;2023-08-17T03:38:06;19.90;99.90
37938;DHT22;23763;48.130;11.602;2023-08-17T03:40:32;19.90;99.90
37938;DHT22;23763;48.130;11.602;2023-08-17T03:42:57;19.80;99.90
37938;DHT22;23763;48.130;11.602;2023-08-17T03:45:23;19.90;99.90
37938;DHT22;23763;48.130;11.602;2023-08-17T03:47:48;19.90;99.90
37938;DHT22;23763;48.130;11.602;2023-08-17T03:50:14;19.90;99.90
37938;DHT22;23763;48.130;11.602;2023-08-17T03:52:39;19.90;99.90
37938;DHT22;23763;48.130;11.602;2023-08-17T03:55:05;19.90;99.90
37938;DHT22;23763;48.130;11.602;2023-08-17T03:57:32;19.80;99.90
37938;DHT22;23763;48.130;11.602;2023-08-17T03:59:58;19.80;99.90
37938;DHT22;23763;48.130;11.602;2023-08-17T04:02:24;19.80;99.90
37938;DHT22;23763;48.130;11.602;2023-08-17T04:04:49;19.70;99.90
37938;DHT22;23763;48.130;11.602;2023-08-17T04:07:21;19.70;99.90
37938;DHT22;23763;48.130;11.602;2023-08-17T04:09:47;19.70;99.90
37938;DHT22;23763;48.130;11.602;2023-08-17T04:12:12;19.70;99.90
37938;DHT22;23763;48.130;11.602;2023-08-17T04:14:38;19.70;99.90
37938;DHT22;23763;48.130;11.602;2023-08-17T04:17:04;19.70;99.90
37938;DHT22;23763;48.130;11.602;2023-08-17T04:19:29;19.60;99.90
37938;DHT22;23763;48.130;11.602;2023-08-17T04:21:55;19.60;99.90
37938;DHT22;23763;48.130;11.602;2023-08-17T04:24:20;19.60;99.90
37938;DHT22;23763;48.130;11.602;2023-08-17T04:26:46;19.70;99.90
37938;DHT22;23763;48.130;11.602;2023-08-17T04:29:11;19.70;99.90
37938;DHT22;23763;48.130;11.602;2023-08-17T04:31:37;19.70;99.90
37938;DHT22;23763;48.130;11.602;2023-08-17T04:34:03;19.70;99.90
37938;DHT22;23763;48.130;11.602;2023-08-17T04:36:28;19.60;99.90
37938;DHT22;23763;48.130;11.602;2023-08-17T04:38:54;19.70;99.90
37938;DHT22;23763;48.130;11.602;2023-08-17T04:41:19;19.80;99.90
37938;DHT22;23763;48.130;11.602;2023-08-17T04:43:45;19.80;99.90
37938;DHT22;23763;48.130;11.602;2023-08-17T04:46:12;19.80;99.90
37938;DHT22;23763;48.130;11.602;2023-08-17T04:48:37;19.90;99.90
37938;DHT22;23763;48.130;11.602;2023-08-17T04:51:03;19.90;99.90
37938;DHT22;23763;48.130;11.602;2023-08-17T04:53:28;20.00;99.90
37938;DHT22;23763;48.130;11.602;2023-08-17T04:55:54;20.10;99.90
37938;DHT22;23763;48.130;11.602;2023-08-17T04:58:19;20.10;99.90
37938;DHT22;23763;48.130;11.602;2023-08-17T05:00:46;20.00;99.90
37938;DHT22;23763;48.130;11.602;2023-08-17T05:03:12;20.00;99.90
37938;DHT22;23763;48.130;11.602;2023-08-17T05:05:37;20.10;99.90
37938;DHT22;23763;48.130;11.602;2023-08-17T05:08:03;20.10;99.90
37938;DHT22;23763;48.130;11.602;2023-08-17T05:10:28;20.10;99.90
37938;DHT22;23763;48.130;11.602;2023-08-17T05:12:54;20.20;99.90
37938;DHT22;23763;48.130;11.602;2023-08-17T05:15:20;20.20;99.90
37938;DHT22;23763;48.130;11.602;2023-08-17T05:17:46;20.20;99.90
37938;DHT22;23763;48.130;11.602;2023-08-17T05:20:11;20.40;99.90
37938;DHT22;23763;48.130;11.602;2023-08-17T05:22:38;20.50;99.90
37938;DHT22;23763;48.130;11.602;2023-08-17T05:25:04;20.50;99.90
37938;DHT22;23763;48.130;11.602;2023-08-17T05:27:30;20.50;99.90
37938;DHT22;23763;48.130;11.602;2023-08-17T05:29:55;20.50;99.90
37938;DHT22;23763;48.130;11.602;2023-08-17T05:32:21;20.60;99.90
37938;DHT22;23763;48.130;11.602;2023-08-17T05:34:47;20.70;99.90
37938;DHT22;23763;48.130;11.602;2023-08-17T05:37:12;20.70;99.90
37938;DHT22;23763;48.130;11.602;2023-08-17T05:39:39;20.70;99.90
37938;DHT22;23763;48.130;11.602;2023-08-17T05:42:06;20.70;99.90
37938;DHT22;23763;48.130;11.602;2023-08-17T05:44:32;20.80;99.90
37938;DHT22;23763;48.130;11.602;2023-08-17T05:46:58;20.90;99.90
37938;DHT22;23763;48.130;11.602;2023-08-17T05:49:23;20.90;99.90
37938;DHT22;23763;48.130;11.602;2023-08-17T05:51:49;21.00;99.90
37938;DHT22;23763;48.130;11.602;2023-08-17T05:54:15;21.10;99.90
37938;DHT22;23763;48.130;11.602;2023-08-17T05:56:40;21.20;99.90
37938;DHT22;23763;48.130;11.602;2023-08-17T05:59:10;21.30;99.90
37938;DHT22;23763;48.130;11.602;2023-08-17T06:01:36;21.30;99.90
37938;DHT22;23763;48.130;11.602;2023-08-17T06:04:02;21.40;99.90
37938;DHT22;23763;48.130;11.602;2023-08-17T06:06:27;21.40;99.90
37938;DHT22;23763;48.130;11.602;2023-08-17T06:08:53;21.50;99.90
37938;DHT22;23763;48.130;11.602;2023-08-17T06:11:19;21.60;99.90
37938;DHT22;23763;48.130;11.602;2023-08-17T06:13:44;21.70;99.90
37938;DHT22;23763;48.130;11.602;2023-08-17T06:16:10;21.70;99.90
37938;DHT22;23763;48.130;11.602;2023-08-17T06:18:36;21.70;99.90
37938;DHT22;23763;48.130;11.602;2023-08-17T06:21:02;21.80;99.90
37938;DHT22;23763;48.130;11.602;2023-08-17T06:23:28;21.90;99.90
37938;DHT22;23763;48.130;11.602;2023-08-17T06:26:00;21.90;99.90
37938;DHT22;23763;48.130;11.602;2023-08-17T06:28:26;22.00;99.90
37938;DHT22;23763;48.130;11.602;2023-08-17T06:30:53;22.00;99.90
37938;DHT22;23763;48.130;11.602;2023-08-17T06:33:19;22.10;99.90
37938;DHT22;23763;48.130;11.602;2023-08-17T06:35:45;22.20;99.90
37938;DHT22;23763;48.130;11.602;2023-08-17T06:38:10;22.30;99.90
37938;DHT22;23763;48.130;11.602;2023-08-17T06:40:36;22.40;99.90
37938;DHT22;23763;48.130;11.602;2023-08-17T06:43:01;22.50;99.90
37938;DHT22;23763;48.130;11.602;2023-08-17T06:45:27;22.50;99.90
37938;DHT22;23763;48.130;11.602;2023-08-17T06:47:53;22.50;99.90
37938;DHT22;23763;48.130;11.602;2023-08-17T06:50:18;22.70;99.90
37938;DHT22;23763;48.130;11.602;2023-08-17T06:52:44;22.80;99.90
37938;DHT22;23763;48.130;11.602;2023-08-17T06:55:09;22.90;99.90
37938;DHT22;23763;48.130;11.602;2023-08-17T06:57:38;22.90;99.90
37938;DHT22;23763;48.130;11.602;2023-08-17T07:00:04;23.00;99.90
37938;DHT22;23763;48.130;11.602;2023-08-17T07:02:33;23.10;99.90
37938;DHT22;23763;48.130;11.602;2023-08-17T07:04:59;23.30;99.90
37938;DHT22;23763;48.130;11.602;2023-08-17T07:07:25;23.40;99.90
37938;DHT22;23763;48.130;11.602;2023-08-17T07:09:50;23.50;99.90
37938;DHT22;23763;48.130;11.602;2023-08-17T07:12:16;23.60;99.90
37938;DHT22;23763;48.130;11.602;2023-08-17T07:14:42;23.70;99.90
37938;DHT22;23763;48.130;11.602;2023-08-17T07:17:07;23.70;99.90
37938;DHT22;23763;48.130;11.602;2023-08-17T07:19:33;23.80;99.90
37938;DHT22;23763;48.130;11.602;2023-08-17T07:21:58;23.90;99.90
37938;DHT22;23763;48.130;11.602;2023-08-17T07:24:24;24.10;99.90
37938;DHT22;23763;48.130;11.602;2023-08-17T07:26:50;24.20;99.90
37938;DHT22;23763;48.130;11.602;2023-08-17T07:29:15;24.30;99.90
37938;DHT22;23763;48.130;11.602;2023-08-17T07:31:41;24.30;99.90
37938;DHT22;23763;48.130;11.602;2023-08-17T07:34:07;24.40;99.90
37938;DHT22;23763;48.130;11.602;2023-08-17T07:36:33;24.50;99.90
37938;DHT22;23763;48.130;11.602;2023-08-17T07:38:59;24.50;99.90
37938;DHT22;23763;48.130;11.602;2023-08-17T07:41:25;24.60;99.90
37938;DHT22;23763;48.130;11.602;2023-08-17T07:43:51;24.70;99.90
37938;DHT22;23763;48.130;11.602;2023-08-17T07:46:17;24.80;99.90
37938;DHT22;23763;48.130;11.602;2023-08-17T07:48:42;24.90;99.90
37938;DHT22;23763;48.130;11.602;2023-08-17T07:51:08;25.10;99.90
37938;DHT22;23763;48.130;11.602;2023-08-17T07:53:33;25.40;99.90
37938;DHT22;23763;48.130;11.602;2023-08-17T07:55:59;25.80;99.90
37938;DHT22;23763;48.130;11.602;2023-08-17T07:58:25;26.40;99.90
37938;DHT22;23763;48.130;11.602;2023-08-17T08:00:50;27.60;99.90
37938;DHT22;23763;48.130;11.602;2023-08-17T08:03:16;29.70;99.90
37938;DHT22;23763;48.130;11.602;2023-08-17T08:05:41;32.00;99.90
37938;DHT22;23763;48.130;11.602;2023-08-17T08:08:07;33.90;97.50
37938;DHT22;23763;48.130;11.602;2023-08-17T08:10:35;34.70;93.70
37938;DHT22;23763;48.130;11.602;2023-08-17T08:13:01;35.70;91.20
37938;DHT22;23763;48.130;11.602;2023-08-17T08:15:26;36.20;87.60
37938;DHT22;23763;48.130;11.602;2023-08-17T08:17:52;35.90;86.20
37938;DHT22;23763;48.130;11.602;2023-08-17T08:26:12;36.40;84.40
37938;DHT22;23763;48.130;11.602;2023-08-17T08:28:41;36.20;83.00
37938;DHT22;23763;48.130;11.602;2023-08-17T08:31:07;37.30;80.10
37938;DHT22;23763;48.130;11.602;2023-08-17T08:33:32;37.70;78.50
37938;DHT22;23763;48.130;11.602;2023-08-17T08:35:58;37.20;78.50
37938;DHT22;23763;48.130;11.602;2023-08-17T08:38:24;36.10;80.50
37938;DHT22;23763;48.130;11.602;2023-08-17T08:40:49;34.90;83.00
37938;DHT22;23763;48.130;11.602;2023-08-17T08:43:15;34.80;82.80
37938;DHT22;23763;48.130;11.602;2023-08-17T08:45:42;34.90;83.90
37938;DHT22;23763;48.130;11.602;2023-08-17T08:48:11;34.80;83.60
37938;DHT22;23763;48.130;11.602;2023-08-17T08:50:39;35.30;82.70
37938;DHT22;23763;48.130;11.602;2023-08-17T08:53:15;35.10;83.50
37938;DHT22;23763;48.130;11.602;2023-08-17T08:55:55;35.30;82.90
37938;DHT22;23763;48.130;11.602;2023-08-17T08:58:22;34.30;84.50
37938;DHT22;23763;48.130;11.602;2023-08-17T09:00:48;34.50;84.70
37938;DHT22;23763;48.130;11.602;2023-08-17T09:03:17;34.50;84.60
37938;DHT22;23763;48.130;11.602;2023-08-17T09:05:47;35.60;82.40
37938;DHT22;23763;48.130;11.602;2023-08-17T09:08:14;36.40;80.50
37938;DHT22;23763;48.130;11.602;2023-08-17T09:10:41;36.40;80.40
37938;DHT22;23763;48.130;11.602;2023-08-17T09:13:07;35.70;81.30
37938;DHT22;23763;48.130;11.602;2023-08-17T09:15:34;35.80;81.10
37938;DHT22;23763;48.130;11.602;2023-08-17T09:17:59;34.90;82.00
37938;DHT22;23763;48.130;11.602;2023-08-17T09:20:45;34.40;83.60
37938;DHT22;23763;48.130;11.602;2023-08-17T09:23:15;33.80;85.40
37938;DHT22;23763;48.130;11.602;2023-08-17T09:25:43;33.30;86.20
37938;DHT22;23763;48.130;11.602;2023-08-17T09:28:14;32.60;88.00
37938;DHT22;23763;48.130;11.602;2023-08-17T09:33:26;31.50;90.40
37938;DHT22;23763;48.130;11.602;2023-08-17T09:35:54;31.40;90.60
37938;DHT22;23763;48.130;11.602;2023-08-17T09:38:20;31.30;90.50
37938;DHT22;23763;48.130;11.602;2023-08-17T09:40:47;31.40;90.70
37938;DHT22;23763;48.130;11.602;2023-08-17T09:43:14;31.30;90.40
37938;DHT22;23763;48.130;11.602;2023-08-17T09:45:40;31.20;90.70
37938;DHT22;23763;48.130;11.602;2023-08-17T09:48:07;31.10;91.00
37938;DHT22;23763;48.130;11.602;2023-08-17T09:50:43;31.40;90.60
37938;DHT22;23763;48.130;11.602;2023-08-17T09:53:13;31.60;90.60
37938;DHT22;23763;48.130;11.602;2023-08-17T09:55:41;31.60;90.20
37938;DHT22;23763;48.130;11.602;2023-08-17T09:58:06;31.70;89.80
37938;DHT22;23763;48.130;11.602;2023-08-17T10:00:34;31.40;89.90
37938;DHT22;23763;48.130;11.602;2023-08-17T10:03:02;31.20;90.20
37938;DHT22;23763;48.130;11.602;2023-08-17T10:05:31;31.10;90.70
37938;DHT22;23763;48.130;11.602;2023-08-17T10:07:57;31.10;90.70
37938;DHT22;23763;48.130;11.602;2023-08-17T10:10:26;30.90;90.60
37938;DHT22;23763;48.130;11.602;2023-08-17T10:13:16;30.90;90.80
37938;DHT22;23763;48.130;11.602;2023-08-17T10:15:57;30.40;91.10
37938;DHT22;23763;48.130;11.602;2023-08-17T10:21:33;30.70;90.80
37938;DHT22;23763;48.130;11.602;2023-08-17T10:24:02;30.70;90.60
37938;DHT22;23763;48.130;11.602;2023-08-17T10:26:29;30.60;90.20
37938;DHT22;23763;48.130;11.602;2023-08-17T10:28:55;30.60;90.40
37938;DHT22;23763;48.130;11.602;2023-08-17T10:31:24;30.60;90.00
37938;DHT22;23763;48.130;11.602;2023-08-17T10:33:50;30.60;89.30
37938;DHT22;23763;48.130;11.602;2023-08-17T10:36:17;30.30;89.50
37938;DHT22;23763;48.130;11.602;2023-08-17T10:38:42;30.20;89.70
37938;DHT22;23763;48.130;11.602;2023-08-17T10:41:13;30.00;89.90
37938;DHT22;23763;48.130;11.602;2023-08-17T10:46:21;30.10;90.10
37938;DHT22;23763;48.130;11.602;2023-08-17T10:48:46;30.20;90.30
37938;DHT22;23763;48.130;11.602;2023-08-17T10:51:12;30.00;90.50
37938;DHT22;23763;48.130;11.602;2023-08-17T10:53:43;29.70;91.10
37938;DHT22;23763;48.130;11.602;2023-08-17T10:56:13;29.60;91.10
37938;DHT22;23763;48.130;11.602;2023-08-17T10:58:39;29.40;91.30
37938;DHT22;23763;48.130;11.602;2023-08-17T11:01:07;29.40;90.90
37938;DHT22;23763;48.130;11.602;2023-08-17T11:03:33;29.40;91.50
37938;DHT22;23763;48.130;11.602;2023-08-17T11:06:14;29.40;92.40
37938;DHT22;23763;48.130;11.602;2023-08-17T11:08:54;29.40;92.60
37938;DHT22;23763;48.130;11.602;2023-08-17T11:11:21;29.40;92.70
37938;DHT22;23763;48.130;11.602;2023-08-17T11:13:48;29.40;92.90
37938;DHT22;23763;48.130;11.602;2023-08-17T11:16:16;29.50;93.20
37938;DHT22;23763;48.130;11.602;2023-08-17T11:18:42;29.50;93.80
37938;DHT22;23763;48.130;11.602;2023-08-17T11:21:08;29.40;94.20
37938;DHT22;23763;48.130;11.602;2023-08-17T11:23:37;29.50;94.30
37938;DHT22;23763;48.130;11.602;2023-08-17T11:26:03;29.60;94.00
37938;DHT22;23763;48.130;11.602;2023-08-17T11:28:33;29.60;94.60
37938;DHT22;23763;48.130;11.602;2023-08-17T11:31:03;29.60;94.50
37938;DHT22;23763;48.130;11.602;2023-08-17T11:33:31;29.60;94.50
37938;DHT22;23763;48.130;11.602;2023-08-17T11:36:03;29.50;95.00
37938;DHT22;23763;48.130;11.602;2023-08-17T11:38:35;29.60;95.20
37938;DHT22;23763;48.130;11.602;2023-08-17T11:41:02;29.80;95.60
37938;DHT22;23763;48.130;11.602;2023-08-17T11:43:29;29.90;95.60
37938;DHT22;23763;48.130;11.602;2023-08-17T11:45:55;30.10;95.80
37938;DHT22;23763;48.130;11.602;2023-08-17T11:48:22;30.30;95.60
37938;DHT22;23763;48.130;11.602;2023-08-17T11:50:48;30.40;95.20
37938;DHT22;23763;48.130;11.602;2023-08-17T11:53:14;30.50;94.80
37938;DHT22;23763;48.130;11.602;2023-08-17T11:55:40;30.40;94.90
37938;DHT22;23763;48.130;11.602;2023-08-17T11:58:06;30.30;94.70
37938;DHT22;23763;48.130;11.602;2023-08-17T12:00:39;30.30;94.90
37938;DHT22;23763;48.130;11.602;2023-08-17T12:03:05;30.30;94.50
37938;DHT22;23763;48.130;11.602;2023-08-17T12:05:31;30.30;94.50
37938;DHT22;23763;48.130;11.602;2023-08-17T12:07:59;30.30;95.00
37938;DHT22;23763;48.130;11.602;2023-08-17T12:10:31;30.30;94.80
37938;DHT22;23763;48.130;11.602;2023-08-17T12:13:01;30.40;94.70
37938;DHT22;23763;48.130;11.602;2023-08-17T12:15:33;30.20;94.50
37938;DHT22;23763;48.130;11.602;2023-08-17T12:18:02;30.30;94.80
37938;DHT22;23763;48.130;11.602;2023-08-17T12:20:28;30.30;94.80
37938;DHT22;23763;48.130;11.602;2023-08-17T12:22:53;30.40;94.60
37938;DHT22;23763;48.130;11.602;2023-08-17T12:25:23;30.30;94.80
37938;DHT22;23763;48.130;11.602;2023-08-17T12:27:49;30.30;94.40
37938;DHT22;23763;48.130;11.602;2023-08-17T12:30:26;30.30;94.70
37938;DHT22;23763;48.130;11.602;2023-08-17T12:32:52;30.30;94.10
37938;DHT22;23763;48.130;11.602;2023-08-17T12:35:17;30.20;94.20
37938;DHT22;23763;48.130;11.602;2023-08-17T12:37:44;30.20;93.80
37938;DHT22;23763;48.130;11.602;2023-08-17T12:40:10;30.00;94.00
37938;DHT22;23763;48.130;11.602;2023-08-17T12:42:36;30.00;94.10
37938;DHT22;23763;48.130;11.602;2023-08-17T12:45:01;30.20;94.20
37938;DHT22;23763;48.130;11.602;2023-08-17T12:47:27;30.20;93.40
37938;DHT22;23763;48.130;11.602;2023-08-17T12:49:53;30.20;93.80
37938;DHT22;23763;48.130;11.602;2023-08-17T12:52:18;30.20;93.10
37938;DHT22;23763;48.130;11.602;2023-08-17T12:54:44;30.20;92.90
37938;DHT22;23763;48.130;11.602;2023-08-17T12:57:10;30.30;92.80
37938;DHT22;23763;48.130;11.602;2023-08-17T12:59:35;30.10;92.70
37938;DHT22;23763;48.130;11.602;2023-08-17T13:02:01;30.20;92.90
37938;DHT22;23763;48.130;11.602;2023-08-17T13:04:26;30.30;92.70
37938;DHT22;23763;48.130;11.602;2023-08-17T13:06:52;30.30;92.40
37938;DHT22;23763;48.130;11.602;2023-08-17T13:09:19;30.30;92.30
37938;DHT22;23763;48.130;11.602;2023-08-17T13:11:45;30.40;91.90
37938;DHT22;23763;48.130;11.602;2023-08-17T13:14:12;30.40;91.90
37938;DHT22;23763;48.130;11.602;2023-08-17T13:16:38;30.50;91.40
37938;DHT22;23763;48.130;11.602;2023-08-17T13:19:03;30.50;91.20
37938;DHT22;23763;48.130;11.602;2023-08-17T13:21:29;30.60;91.40
37938;DHT22;23763;48.130;11.602;2023-08-17T13:23:54;30.40;91.40
37938;DHT22;23763;48.130;11.602;2023-08-17T13:26:22;30.40;91.70
37938;DHT22;23763;48.130;11.602;2023-08-17T13:28:47;30.30;91.70
37938;DHT22;23763;48.130;11.602;2023-08-17T13:31:13;30.40;91.40
37938;DHT22;23763;48.130;11.602;2023-08-17T13:33:39;30.30;90.90
37938;DHT22;23763;48.130;11.602;2023-08-17T13:36:04;30.30;90.80
37938;DHT22;23763;48.130;11.602;2023-08-17T13:38:30;30.20;90.50
37938;DHT22;23763;48.130;11.602;2023-08-17T13:40:56;30.20;90.60
37938;DHT22;23763;48.130;11.602;2023-08-17T13:43:22;30.30;90.60
37938;DHT22;23763;48.130;11.602;2023-08-17T13:45:48;30.40;90.90
37938;DHT22;23763;48.130;11.602;2023-08-17T13:48:13;30.30;90.60
37938;DHT22;23763;48.130;11.602;2023-08-17T13:50:39;30.20;90.60
37938;DHT22;23763;48.130;11.602;2023-08-17T13:53:05;30.20;90.20
37938;DHT22;23763;48.130;11.602;2023-08-17T13:55:31;29.90;89.10
37938;DHT22;23763;48.130;11.602;2023-08-17T13:57:57;29.80;88.60
37938;DHT22;23763;48.130;11.602;2023-08-17T14:00:24;29.80;89.90
37938;DHT22;23763;48.130;11.602;2023-08-17T14:02:49;29.70;90.60
37938;DHT22;23763;48.130;11.602;2023-08-17T14:05:15;29.60;90.40
37938;DHT22;23763;48.130;11.602;2023-08-17T14:07:40;29.50;90.40
37938;DHT22;23763;48.130;11.602;2023-08-17T14:10:06;29.40;88.90
37938;DHT22;23763;48.130;11.602;2023-08-17T14:12:32;29.30;88.80
37938;DHT22;23763;48.130;11.602;2023-08-17T14:14:59;29.10;90.50
37938;DHT22;23763;48.130;11.602;2023-08-17T14:17:24;29.10;90.50
37938;DHT22;23763;48.130;11.602;2023-08-17T14:19:50;29.00;91.00
37938;DHT22;23763;48.130;11.602;2023-08-17T14:22:15;29.00;91.20
37938;DHT22;23763;48.130;11.602;2023-08-17T14:24:41;28.90;90.60
37938;DHT22;23763;48.130;11.602;2023-08-17T14:27:07;28.90;90.80
37938;DHT22;23763;48.130;11.602;2023-08-17T14:29:32;28.90;91.20
37938;DHT22;23763;48.130;11.602;2023-08-17T14:31:58;28.90;91.60
37938;DHT22;23763;48.130;11.602;2023-08-17T14:34:23;28.80;91.70
37938;DHT22;23763;48.130;11.602;2023-08-17T14:36:49;28.80;91.60
37938;DHT22;23763;48.130;11.602;2023-08-17T14:39:14;28.80;91.60
37938;DHT22;23763;48.130;11.602;2023-08-17T14:41:40;28.90;91.20
37938;DHT22;23763;48.130;11.602;2023-08-17T14:44:05;29.00;91.00
37938;DHT22;23763;48.130;11.602;2023-08-17T14:46:31;29.20;90.70
37938;DHT22;23763;48.130;11.602;2023-08-17T14:48:57;29.40;90.80
37938;DHT22;23763;48.130;11.602;2023-08-17T14:51:24;29.60;91.30
37938;DHT22;23763;48.130;11.602;2023-08-17T14:53:49;29.80;91.70
37938;DHT22;23763;48.130;11.602;2023-08-17T14:56:15;29.90;91.20
37938;DHT22;23763;48.130;11.602;2023-08-17T14:58:40;30.20;90.30
37938;DHT22;23763;48.130;11.602;2023-08-17T15:01:06;30.40;88.70
37938;DHT22;23763;48.130;11.602;2023-08-17T15:03:31;30.50;89.20
37938;DHT22;23763;48.130;11.602;2023-08-17T15:05:57;30.50;87.30
37938;DHT22;23763;48.130;11.602;2023-08-17T15:08:23;30.70;87.60
37938;DHT22;23763;48.130;11.602;2023-08-17T15:10:49;30.80;87.20
37938;DHT22;23763;48.130;11.602;2023-08-17T15:13:15;30.80;86.30
37938;DHT22;23763;48.130;11.602;2023-08-17T15:15:41;30.80;85.90
37938;DHT22;23763;48.130;11.602;2023-08-17T15:18:08;30.70;85.30
37938;DHT22;23763;48.130;11.602;2023-08-17T15:20:34;30.70;85.80
37938;DHT22;23763;48.130;11.602;2023-08-17T15:22:59;30.70;85.30
37938;DHT22;23763;48.130;11.602;2023-08-17T15:25:25;30.50;84.90
37938;DHT22;23763;48.130;11.602;2023-08-17T15:27:51;30.30;84.60
37938;DHT22;23763;48.130;11.602;2023-08-17T15:30:16;30.30;84.20
37938;DHT22;23763;48.130;11.602;2023-08-17T15:32:42;30.30;83.80